Aviation Digital Data Service (ADDS)

Output produced by METARs form (1255 UTC 15 November 2018)
found at http://www.aviationweather.gov/metar/data/
 
WBSB 151230Z 31002KT 9999 SCT015 BKN140 29/25 Q1011 NOSIG
TAF WBSB 151100Z 1512/1618 22003KT 9999 FEW015 BKN140 
     TEMPO 1516/1520 6000 -SHRA SCT014 
     BECMG 1603/1605 35010KT FEW016 FEW017CB 
     TEMPO 1606/1610 4000 -TSRA SCT015 FEW016CB